Arbor, Missouri
Current Conditions -  °F | °C
As of 8:17 AM on Friday 31 Oct 2014 (Local Time) from KCGI Reporting Station
Overcast Overcast  
Wind Chill: 50°   Ceiling: 5000
Heat Index: 50°   Visibility: 10mi
Dew Point: 44°   Wind: 24mph
Humidity: 80%   Direction: 350°N
Pressure: 30.13"   Gusts: 31mph
Location:  37.1651°N, 89.623°W
Report Text: KCGI 311317Z 35021G27KT 10SM SCT019 BKN050 OVC100 10/07 A3013 RMK AO2 PK WND 36027/1317 T01000067
Loading
Personal Weather Stations






























Interactive Weather Map
Tropical Storm Tracking
New forecast layout! Learn more

10-Day Weather Forecast

Advertisements
Track Severe Weather on mobile